sensor_id;sensor_type;location;lat;lon;timestamp;temperature;humidity
16515;DHT22;8370;52.556;7.970;2023-02-04T00:01:30;6.90;99.90
16515;DHT22;8370;52.556;7.970;2023-02-04T00:03:56;6.80;99.90
16515;DHT22;8370;52.556;7.970;2023-02-04T00:06:21;6.80;99.90
16515;DHT22;8370;52.556;7.970;2023-02-04T00:08:47;6.80;99.90
16515;DHT22;8370;52.556;7.970;2023-02-04T00:11:12;6.80;99.90
16515;DHT22;8370;52.556;7.970;2023-02-04T00:13:38;6.80;99.90
16515;DHT22;8370;52.556;7.970;2023-02-04T00:16:03;6.80;99.90
16515;DHT22;8370;52.556;7.970;2023-02-04T00:18:29;6.80;99.90
16515;DHT22;8370;52.556;7.970;2023-02-04T00:20:54;6.80;99.90
16515;DHT22;8370;52.556;7.970;2023-02-04T00:23:20;6.80;99.90
16515;DHT22;8370;52.556;7.970;2023-02-04T00:25:45;6.80;99.90
16515;DHT22;8370;52.556;7.970;2023-02-04T00:28:11;6.80;99.90
16515;DHT22;8370;52.556;7.970;2023-02-04T00:30:36;6.80;99.90
16515;DHT22;8370;52.556;7.970;2023-02-04T00:33:02;6.80;99.90
16515;DHT22;8370;52.556;7.970;2023-02-04T00:35:28;6.80;99.90
16515;DHT22;8370;52.556;7.970;2023-02-04T00:37:53;6.80;99.90
16515;DHT22;8370;52.556;7.970;2023-02-04T00:40:19;6.80;99.90
16515;DHT22;8370;52.556;7.970;2023-02-04T00:42:44;6.70;99.90
16515;DHT22;8370;52.556;7.970;2023-02-04T00:45:10;6.70;99.90
16515;DHT22;8370;52.556;7.970;2023-02-04T00:47:36;6.70;99.90
16515;DHT22;8370;52.556;7.970;2023-02-04T00:50:02;6.70;99.90
16515;DHT22;8370;52.556;7.970;2023-02-04T00:52:28;6.80;99.90
16515;DHT22;8370;52.556;7.970;2023-02-04T00:54:53;6.80;99.90
16515;DHT22;8370;52.556;7.970;2023-02-04T00:57:19;6.80;99.90
16515;DHT22;8370;52.556;7.970;2023-02-04T00:59:44;6.80;99.90
16515;DHT22;8370;52.556;7.970;2023-02-04T01:02:10;6.80;99.90
16515;DHT22;8370;52.556;7.970;2023-02-04T01:04:36;6.70;99.90
16515;DHT22;8370;52.556;7.970;2023-02-04T01:07:01;6.70;99.90
16515;DHT22;8370;52.556;7.970;2023-02-04T01:09:27;6.70;99.90
16515;DHT22;8370;52.556;7.970;2023-02-04T01:11:52;6.70;99.90
16515;DHT22;8370;52.556;7.970;2023-02-04T01:14:18;6.70;99.90
16515;DHT22;8370;52.556;7.970;2023-02-04T01:16:44;6.70;99.90
16515;DHT22;8370;52.556;7.970;2023-02-04T01:19:10;6.80;99.90
16515;DHT22;8370;52.556;7.970;2023-02-04T01:21:36;6.70;99.90
16515;DHT22;8370;52.556;7.970;2023-02-04T01:24:02;6.70;99.90
16515;DHT22;8370;52.556;7.970;2023-02-04T01:26:28;6.70;99.90
16515;DHT22;8370;52.556;7.970;2023-02-04T01:28:53;6.70;99.90
16515;DHT22;8370;52.556;7.970;2023-02-04T01:31:19;6.70;99.90
16515;DHT22;8370;52.556;7.970;2023-02-04T01:33:44;6.70;99.90
16515;DHT22;8370;52.556;7.970;2023-02-04T01:36:10;6.70;99.90
16515;DHT22;8370;52.556;7.970;2023-02-04T01:38:35;6.70;99.90
16515;DHT22;8370;52.556;7.970;2023-02-04T01:41:02;6.70;99.90
16515;DHT22;8370;52.556;7.970;2023-02-04T01:43:28;6.70;99.90
16515;DHT22;8370;52.556;7.970;2023-02-04T01:45:54;6.80;99.90
16515;DHT22;8370;52.556;7.970;2023-02-04T01:48:20;6.70;99.90
16515;DHT22;8370;52.556;7.970;2023-02-04T01:50:50;6.70;99.90
16515;DHT22;8370;52.556;7.970;2023-02-04T01:53:20;6.60;99.90
16515;DHT22;8370;52.556;7.970;2023-02-04T01:55:46;6.60;99.90
16515;DHT22;8370;52.556;7.970;2023-02-04T01:58:12;6.60;99.90
16515;DHT22;8370;52.556;7.970;2023-02-04T02:00:38;6.60;99.90
16515;DHT22;8370;52.556;7.970;2023-02-04T02:03:05;6.60;99.90
16515;DHT22;8370;52.556;7.970;2023-02-04T02:05:47;6.60;99.90
16515;DHT22;8370;52.556;7.970;2023-02-04T02:08:14;6.60;99.90
16515;DHT22;8370;52.556;7.970;2023-02-04T02:10:43;6.60;99.90
16515;DHT22;8370;52.556;7.970;2023-02-04T02:13:12;6.60;99.90
16515;DHT22;8370;52.556;7.970;2023-02-04T02:15:38;6.60;99.90
16515;DHT22;8370;52.556;7.970;2023-02-04T02:18:04;6.70;99.90
16515;DHT22;8370;52.556;7.970;2023-02-04T02:20:30;6.70;99.90
16515;DHT22;8370;52.556;7.970;2023-02-04T02:23:06;6.70;99.90
16515;DHT22;8370;52.556;7.970;2023-02-04T02:25:35;6.70;99.90
16515;DHT22;8370;52.556;7.970;2023-02-04T02:28:03;6.70;99.90
16515;DHT22;8370;52.556;7.970;2023-02-04T02:30:29;6.70;99.90
16515;DHT22;8370;52.556;7.970;2023-02-04T02:32:55;6.70;99.90
16515;DHT22;8370;52.556;7.970;2023-02-04T02:35:20;6.70;99.90
16515;DHT22;8370;52.556;7.970;2023-02-04T02:37:46;6.60;99.90
16515;DHT22;8370;52.556;7.970;2023-02-04T02:40:12;6.60;99.90
16515;DHT22;8370;52.556;7.970;2023-02-04T02:42:38;6.60;99.90
16515;DHT22;8370;52.556;7.970;2023-02-04T02:45:10;6.70;99.90
16515;DHT22;8370;52.556;7.970;2023-02-04T02:47:37;6.60;99.90
16515;DHT22;8370;52.556;7.970;2023-02-04T02:50:03;6.70;99.90
16515;DHT22;8370;52.556;7.970;2023-02-04T02:52:28;6.70;99.90
16515;DHT22;8370;52.556;7.970;2023-02-04T02:54:54;6.60;99.90
16515;DHT22;8370;52.556;7.970;2023-02-04T02:57:21;6.60;99.90
16515;DHT22;8370;52.556;7.970;2023-02-04T02:59:47;6.60;99.90
16515;DHT22;8370;52.556;7.970;2023-02-04T03:02:17;6.60;99.90
16515;DHT22;8370;52.556;7.970;2023-02-04T03:04:51;6.50;99.90
16515;DHT22;8370;52.556;7.970;2023-02-04T03:07:19;6.50;99.90
16515;DHT22;8370;52.556;7.970;2023-02-04T03:09:46;6.50;99.90
16515;DHT22;8370;52.556;7.970;2023-02-04T03:12:11;6.50;99.90
16515;DHT22;8370;52.556;7.970;2023-02-04T03:14:37;6.50;99.90
16515;DHT22;8370;52.556;7.970;2023-02-04T03:17:04;6.40;99.90
16515;DHT22;8370;52.556;7.970;2023-02-04T03:19:32;6.40;99.90
16515;DHT22;8370;52.556;7.970;2023-02-04T03:21:59;6.40;99.90
16515;DHT22;8370;52.556;7.970;2023-02-04T03:24:25;6.40;99.90
16515;DHT22;8370;52.556;7.970;2023-02-04T03:26:51;6.40;99.90
16515;DHT22;8370;52.556;7.970;2023-02-04T03:29:17;6.40;99.90
16515;DHT22;8370;52.556;7.970;2023-02-04T03:31:42;6.30;99.90
16515;DHT22;8370;52.556;7.970;2023-02-04T03:34:08;6.30;99.90
16515;DHT22;8370;52.556;7.970;2023-02-04T03:36:33;6.30;99.90
16515;DHT22;8370;52.556;7.970;2023-02-04T03:39:01;6.30;99.90
16515;DHT22;8370;52.556;7.970;2023-02-04T03:41:26;6.30;99.90
16515;DHT22;8370;52.556;7.970;2023-02-04T03:43:52;6.30;99.90
16515;DHT22;8370;52.556;7.970;2023-02-04T03:46:17;6.30;99.90
16515;DHT22;8370;52.556;7.970;2023-02-04T03:48:43;6.30;99.90
16515;DHT22;8370;52.556;7.970;2023-02-04T03:51:08;6.30;99.90
16515;DHT22;8370;52.556;7.970;2023-02-04T03:53:34;6.30;99.90
16515;DHT22;8370;52.556;7.970;2023-02-04T03:55:59;6.30;99.90
16515;DHT22;8370;52.556;7.970;2023-02-04T03:58:24;6.30;99.90
16515;DHT22;8370;52.556;7.970;2023-02-04T04:00:50;6.20;99.90
16515;DHT22;8370;52.556;7.970;2023-02-04T04:03:15;6.10;99.90
16515;DHT22;8370;52.556;7.970;2023-02-04T04:05:41;5.90;99.90
16515;DHT22;8370;52.556;7.970;2023-02-04T04:08:06;5.80;99.90
16515;DHT22;8370;52.556;7.970;2023-02-04T04:10:32;5.70;99.90
16515;DHT22;8370;52.556;7.970;2023-02-04T04:12:57;5.60;99.90
16515;DHT22;8370;52.556;7.970;2023-02-04T04:15:23;5.60;99.90
16515;DHT22;8370;52.556;7.970;2023-02-04T04:17:49;5.50;99.90
16515;DHT22;8370;52.556;7.970;2023-02-04T04:20:14;5.50;99.90
16515;DHT22;8370;52.556;7.970;2023-02-04T04:22:40;5.40;99.90
16515;DHT22;8370;52.556;7.970;2023-02-04T04:25:06;5.40;99.90
16515;DHT22;8370;52.556;7.970;2023-02-04T04:27:31;5.40;99.90
16515;DHT22;8370;52.556;7.970;2023-02-04T04:29:57;5.40;99.90
16515;DHT22;8370;52.556;7.970;2023-02-04T04:32:23;5.40;99.90
16515;DHT22;8370;52.556;7.970;2023-02-04T04:34:48;5.30;99.90
16515;DHT22;8370;52.556;7.970;2023-02-04T04:37:14;5.30;99.90
16515;DHT22;8370;52.556;7.970;2023-02-04T04:39:39;5.30;99.90
16515;DHT22;8370;52.556;7.970;2023-02-04T04:42:05;5.30;99.90
16515;DHT22;8370;52.556;7.970;2023-02-04T04:44:30;5.30;99.90
16515;DHT22;8370;52.556;7.970;2023-02-04T04:46:56;5.30;99.90
16515;DHT22;8370;52.556;7.970;2023-02-04T04:49:22;5.30;99.90
16515;DHT22;8370;52.556;7.970;2023-02-04T04:51:47;5.20;99.90
16515;DHT22;8370;52.556;7.970;2023-02-04T04:54:13;5.20;99.90
16515;DHT22;8370;52.556;7.970;2023-02-04T04:56:38;5.10;99.90
16515;DHT22;8370;52.556;7.970;2023-02-04T04:59:04;5.00;99.90
16515;DHT22;8370;52.556;7.970;2023-02-04T05:01:29;4.90;99.90
16515;DHT22;8370;52.556;7.970;2023-02-04T05:03:55;4.90;99.90
16515;DHT22;8370;52.556;7.970;2023-02-04T05:06:20;4.80;99.90
16515;DHT22;8370;52.556;7.970;2023-02-04T05:08:50;4.80;99.90
16515;DHT22;8370;52.556;7.970;2023-02-04T05:11:16;4.80;99.90
16515;DHT22;8370;52.556;7.970;2023-02-04T05:13:41;4.80;99.90
16515;DHT22;8370;52.556;7.970;2023-02-04T05:16:07;4.70;99.90
16515;DHT22;8370;52.556;7.970;2023-02-04T05:18:32;4.70;99.90
16515;DHT22;8370;52.556;7.970;2023-02-04T05:20:58;4.70;99.90
16515;DHT22;8370;52.556;7.970;2023-02-04T05:23:23;4.60;99.90
16515;DHT22;8370;52.556;7.970;2023-02-04T05:25:49;4.60;99.90
16515;DHT22;8370;52.556;7.970;2023-02-04T05:28:14;4.70;99.90
16515;DHT22;8370;52.556;7.970;2023-02-04T05:30:40;4.70;99.90
16515;DHT22;8370;52.556;7.970;2023-02-04T05:33:05;4.60;99.90
16515;DHT22;8370;52.556;7.970;2023-02-04T05:35:31;4.70;99.90
16515;DHT22;8370;52.556;7.970;2023-02-04T05:37:56;4.70;99.90
16515;DHT22;8370;52.556;7.970;2023-02-04T05:40:22;4.60;99.90
16515;DHT22;8370;52.556;7.970;2023-02-04T05:42:47;4.60;99.90
16515;DHT22;8370;52.556;7.970;2023-02-04T05:45:14;4.60;99.90
16515;DHT22;8370;52.556;7.970;2023-02-04T05:47:41;4.50;99.90
16515;DHT22;8370;52.556;7.970;2023-02-04T05:50:07;4.50;99.90
16515;DHT22;8370;52.556;7.970;2023-02-04T05:52:32;4.50;99.90
16515;DHT22;8370;52.556;7.970;2023-02-04T05:54:58;4.50;99.90
16515;DHT22;8370;52.556;7.970;2023-02-04T05:57:23;4.40;99.90
16515;DHT22;8370;52.556;7.970;2023-02-04T05:59:49;4.40;99.90
16515;DHT22;8370;52.556;7.970;2023-02-04T06:02:14;4.40;99.90
16515;DHT22;8370;52.556;7.970;2023-02-04T06:04:39;4.40;99.90
16515;DHT22;8370;52.556;7.970;2023-02-04T06:07:05;4.40;99.90
16515;DHT22;8370;52.556;7.970;2023-02-04T06:09:31;4.30;99.90
16515;DHT22;8370;52.556;7.970;2023-02-04T06:11:57;4.30;99.90
16515;DHT22;8370;52.556;7.970;2023-02-04T06:14:22;4.20;99.90
16515;DHT22;8370;52.556;7.970;2023-02-04T06:16:48;4.10;99.90
16515;DHT22;8370;52.556;7.970;2023-02-04T06:19:13;4.10;99.90
16515;DHT22;8370;52.556;7.970;2023-02-04T06:21:39;4.10;99.90
16515;DHT22;8370;52.556;7.970;2023-02-04T06:24:05;4.10;99.90
16515;DHT22;8370;52.556;7.970;2023-02-04T06:26:30;4.10;99.90
16515;DHT22;8370;52.556;7.970;2023-02-04T06:28:56;4.10;99.90
16515;DHT22;8370;52.556;7.970;2023-02-04T06:31:21;4.10;99.90
16515;DHT22;8370;52.556;7.970;2023-02-04T06:33:47;4.10;99.90
16515;DHT22;8370;52.556;7.970;2023-02-04T06:36:12;4.00;99.90
16515;DHT22;8370;52.556;7.970;2023-02-04T06:38:38;3.90;99.90
16515;DHT22;8370;52.556;7.970;2023-02-04T06:41:03;3.80;99.90
16515;DHT22;8370;52.556;7.970;2023-02-04T06:43:29;3.80;99.90
16515;DHT22;8370;52.556;7.970;2023-02-04T06:45:54;3.70;99.90
16515;DHT22;8370;52.556;7.970;2023-02-04T06:48:20;3.80;99.90
16515;DHT22;8370;52.556;7.970;2023-02-04T06:50:45;3.70;99.90
16515;DHT22;8370;52.556;7.970;2023-02-04T06:53:11;3.80;99.90
16515;DHT22;8370;52.556;7.970;2023-02-04T06:55:37;3.80;99.90
16515;DHT22;8370;52.556;7.970;2023-02-04T06:58:03;3.80;99.90
16515;DHT22;8370;52.556;7.970;2023-02-04T07:00:28;3.80;99.90
16515;DHT22;8370;52.556;7.970;2023-02-04T07:02:56;3.90;99.90
16515;DHT22;8370;52.556;7.970;2023-02-04T07:05:24;3.90;99.90
16515;DHT22;8370;52.556;7.970;2023-02-04T07:07:50;4.00;99.90
16515;DHT22;8370;52.556;7.970;2023-02-04T07:10:16;4.10;99.90
16515;DHT22;8370;52.556;7.970;2023-02-04T07:12:42;4.10;99.90
16515;DHT22;8370;52.556;7.970;2023-02-04T07:15:08;4.00;99.90
16515;DHT22;8370;52.556;7.970;2023-02-04T07:17:34;4.00;99.90
16515;DHT22;8370;52.556;7.970;2023-02-04T07:19:59;3.90;99.90
16515;DHT22;8370;52.556;7.970;2023-02-04T07:22:25;3.80;99.90
16515;DHT22;8370;52.556;7.970;2023-02-04T07:24:50;3.80;99.90
16515;DHT22;8370;52.556;7.970;2023-02-04T07:27:16;3.80;99.90
16515;DHT22;8370;52.556;7.970;2023-02-04T07:29:41;3.80;99.90
16515;DHT22;8370;52.556;7.970;2023-02-04T07:32:07;3.80;99.90
16515;DHT22;8370;52.556;7.970;2023-02-04T07:34:32;3.70;99.90
16515;DHT22;8370;52.556;7.970;2023-02-04T07:36:58;3.80;99.90
16515;DHT22;8370;52.556;7.970;2023-02-04T07:39:23;3.80;99.90
16515;DHT22;8370;52.556;7.970;2023-02-04T07:41:49;3.90;99.90
16515;DHT22;8370;52.556;7.970;2023-02-04T07:44:14;3.90;99.90
16515;DHT22;8370;52.556;7.970;2023-02-04T07:46:40;3.90;99.90
16515;DHT22;8370;52.556;7.970;2023-02-04T07:49:05;3.90;99.90
16515;DHT22;8370;52.556;7.970;2023-02-04T07:51:31;3.90;99.90
16515;DHT22;8370;52.556;7.970;2023-02-04T07:53:56;3.90;99.90
16515;DHT22;8370;52.556;7.970;2023-02-04T07:56:22;4.00;99.90
16515;DHT22;8370;52.556;7.970;2023-02-04T07:58:47;4.00;99.90
16515;DHT22;8370;52.556;7.970;2023-02-04T08:01:13;4.00;99.90
16515;DHT22;8370;52.556;7.970;2023-02-04T08:03:38;4.00;99.90
16515;DHT22;8370;52.556;7.970;2023-02-04T08:06:04;4.10;99.90
16515;DHT22;8370;52.556;7.970;2023-02-04T08:08:29;4.10;99.90
16515;DHT22;8370;52.556;7.970;2023-02-04T08:10:55;4.20;99.90
16515;DHT22;8370;52.556;7.970;2023-02-04T08:13:20;4.30;99.90
16515;DHT22;8370;52.556;7.970;2023-02-04T08:15:46;4.30;99.90
16515;DHT22;8370;52.556;7.970;2023-02-04T08:18:11;4.40;99.90
16515;DHT22;8370;52.556;7.970;2023-02-04T08:20:37;4.40;99.90
16515;DHT22;8370;52.556;7.970;2023-02-04T08:23:02;4.50;99.90
16515;DHT22;8370;52.556;7.970;2023-02-04T08:25:27;4.50;99.90
16515;DHT22;8370;52.556;7.970;2023-02-04T08:27:54;4.50;99.90
16515;DHT22;8370;52.556;7.970;2023-02-04T08:30:19;4.50;99.90
16515;DHT22;8370;52.556;7.970;2023-02-04T08:32:45;4.60;99.90
16515;DHT22;8370;52.556;7.970;2023-02-04T08:35:10;4.60;99.90
16515;DHT22;8370;52.556;7.970;2023-02-04T08:37:36;4.60;99.90
16515;DHT22;8370;52.556;7.970;2023-02-04T08:40:02;4.70;99.90
16515;DHT22;8370;52.556;7.970;2023-02-04T08:42:27;4.70;99.90
16515;DHT22;8370;52.556;7.970;2023-02-04T08:44:53;4.70;99.90
16515;DHT22;8370;52.556;7.970;2023-02-04T08:47:19;4.70;99.90
16515;DHT22;8370;52.556;7.970;2023-02-04T08:49:44;4.70;99.90
16515;DHT22;8370;52.556;7.970;2023-02-04T08:52:09;4.70;99.90
16515;DHT22;8370;52.556;7.970;2023-02-04T08:54:35;4.60;99.90
16515;DHT22;8370;52.556;7.970;2023-02-04T08:57:01;4.60;99.90
16515;DHT22;8370;52.556;7.970;2023-02-04T08:59:27;4.70;99.90
16515;DHT22;8370;52.556;7.970;2023-02-04T09:01:52;4.70;99.90
16515;DHT22;8370;52.556;7.970;2023-02-04T09:04:19;4.80;99.90
16515;DHT22;8370;52.556;7.970;2023-02-04T09:06:45;5.00;99.90
16515;DHT22;8370;52.556;7.970;2023-02-04T09:09:12;5.10;99.90
16515;DHT22;8370;52.556;7.970;2023-02-04T09:11:37;5.10;99.90
16515;DHT22;8370;52.556;7.970;2023-02-04T09:14:03;5.20;99.90
16515;DHT22;8370;52.556;7.970;2023-02-04T09:16:29;5.30;99.90
16515;DHT22;8370;52.556;7.970;2023-02-04T09:18:55;5.40;99.90
16515;DHT22;8370;52.556;7.970;2023-02-04T09:21:21;5.40;99.90
16515;DHT22;8370;52.556;7.970;2023-02-04T09:23:46;5.50;99.90
16515;DHT22;8370;52.556;7.970;2023-02-04T09:26:13;5.60;99.90
16515;DHT22;8370;52.556;7.970;2023-02-04T09:28:38;5.70;99.90
16515;DHT22;8370;52.556;7.970;2023-02-04T09:31:04;5.80;99.90
16515;DHT22;8370;52.556;7.970;2023-02-04T09:33:31;6.00;99.90
16515;DHT22;8370;52.556;7.970;2023-02-04T09:35:57;6.00;99.90
16515;DHT22;8370;52.556;7.970;2023-02-04T09:38:23;6.00;99.90
16515;DHT22;8370;52.556;7.970;2023-02-04T09:40:52;6.00;99.90
16515;DHT22;8370;52.556;7.970;2023-02-04T09:43:22;6.10;99.90
16515;DHT22;8370;52.556;7.970;2023-02-04T09:45:52;6.20;99.90
16515;DHT22;8370;52.556;7.970;2023-02-04T09:48:18;6.30;99.90
16515;DHT22;8370;52.556;7.970;2023-02-04T09:50:45;6.20;99.90
16515;DHT22;8370;52.556;7.970;2023-02-04T09:53:14;6.20;99.90
16515;DHT22;8370;52.556;7.970;2023-02-04T09:55:44;6.20;99.90
16515;DHT22;8370;52.556;7.970;2023-02-04T09:58:13;6.20;99.90
16515;DHT22;8370;52.556;7.970;2023-02-04T10:00:41;6.10;99.90
16515;DHT22;8370;52.556;7.970;2023-02-04T10:03:16;6.20;99.90
16515;DHT22;8370;52.556;7.970;2023-02-04T10:05:43;6.10;99.90
16515;DHT22;8370;52.556;7.970;2023-02-04T10:08:13;6.20;99.90
16515;DHT22;8370;52.556;7.970;2023-02-04T10:10:39;6.30;99.90
16515;DHT22;8370;52.556;7.970;2023-02-04T10:13:05;6.30;99.90
16515;DHT22;8370;52.556;7.970;2023-02-04T10:15:32;6.30;99.90
16515;DHT22;8370;52.556;7.970;2023-02-04T10:18:02;6.40;99.90
16515;DHT22;8370;52.556;7.970;2023-02-04T10:20:31;6.40;99.90
16515;DHT22;8370;52.556;7.970;2023-02-04T10:22:57;6.50;99.90
16515;DHT22;8370;52.556;7.970;2023-02-04T10:25:24;6.60;99.90
16515;DHT22;8370;52.556;7.970;2023-02-04T10:30:30;6.60;99.90
16515;DHT22;8370;52.556;7.970;2023-02-04T10:32:58;6.50;99.90
16515;DHT22;8370;52.556;7.970;2023-02-04T10:35:25;6.60;99.90
16515;DHT22;8370;52.556;7.970;2023-02-04T10:38:08;6.70;99.90
16515;DHT22;8370;52.556;7.970;2023-02-04T10:40:35;6.80;99.90
16515;DHT22;8370;52.556;7.970;2023-02-04T10:43:17;6.80;99.90
16515;DHT22;8370;52.556;7.970;2023-02-04T10:45:56;7.00;99.90
16515;DHT22;8370;52.556;7.970;2023-02-04T10:48:23;7.10;99.90
16515;DHT22;8370;52.556;7.970;2023-02-04T10:50:49;7.10;99.90
16515;DHT22;8370;52.556;7.970;2023-02-04T10:53:17;7.30;99.90
16515;DHT22;8370;52.556;7.970;2023-02-04T10:56:02;7.30;99.90
16515;DHT22;8370;52.556;7.970;2023-02-04T10:58:29;7.40;99.90
16515;DHT22;8370;52.556;7.970;2023-02-04T11:00:56;7.40;99.90
16515;DHT22;8370;52.556;7.970;2023-02-04T11:03:26;7.60;99.90
16515;DHT22;8370;52.556;7.970;2023-02-04T11:05:56;7.70;99.90
16515;DHT22;8370;52.556;7.970;2023-02-04T11:08:26;7.80;99.90
16515;DHT22;8370;52.556;7.970;2023-02-04T11:11:03;7.80;99.90
16515;DHT22;8370;52.556;7.970;2023-02-04T11:13:41;7.80;99.90
16515;DHT22;8370;52.556;7.970;2023-02-04T11:18:57;8.80;99.90
16515;DHT22;8370;52.556;7.970;2023-02-04T11:26:46;10.30;99.90
16515;DHT22;8370;52.556;7.970;2023-02-04T11:34:25;9.80;99.90
16515;DHT22;8370;52.556;7.970;2023-02-04T11:37:03;9.50;99.90
16515;DHT22;8370;52.556;7.970;2023-02-04T11:39:35;9.50;99.90
16515;DHT22;8370;52.556;7.970;2023-02-04T11:42:03;9.70;99.90
16515;DHT22;8370;52.556;7.970;2023-02-04T11:44:29;10.00;99.90
16515;DHT22;8370;52.556;7.970;2023-02-04T11:46:56;10.50;99.90
16515;DHT22;8370;52.556;7.970;2023-02-04T11:49:24;11.20;99.90
16515;DHT22;8370;52.556;7.970;2023-02-04T11:52:01;11.70;99.90
16515;DHT22;8370;52.556;7.970;2023-02-04T11:54:26;12.40;99.90
16515;DHT22;8370;52.556;7.970;2023-02-04T11:56:52;12.90;99.90
16515;DHT22;8370;52.556;7.970;2023-02-04T11:59:17;13.30;99.90
16515;DHT22;8370;52.556;7.970;2023-02-04T12:01:45;13.20;99.90
16515;DHT22;8370;52.556;7.970;2023-02-04T12:04:23;13.10;99.90
16515;DHT22;8370;52.556;7.970;2023-02-04T12:07:02;13.20;99.90
16515;DHT22;8370;52.556;7.970;2023-02-04T12:09:30;13.40;99.90
16515;DHT22;8370;52.556;7.970;2023-02-04T12:12:01;13.60;99.90
16515;DHT22;8370;52.556;7.970;2023-02-04T12:14:37;13.80;99.90
16515;DHT22;8370;52.556;7.970;2023-02-04T12:17:16;14.10;99.90
16515;DHT22;8370;52.556;7.970;2023-02-04T12:19:41;14.40;99.90
16515;DHT22;8370;52.556;7.970;2023-02-04T12:22:07;14.90;99.90
16515;DHT22;8370;52.556;7.970;2023-02-04T12:24:33;15.40;99.90
16515;DHT22;8370;52.556;7.970;2023-02-04T12:26:59;15.80;99.90
16515;DHT22;8370;52.556;7.970;2023-02-04T12:29:24;16.40;99.90
16515;DHT22;8370;52.556;7.970;2023-02-04T12:31:50;16.80;99.90
16515;DHT22;8370;52.556;7.970;2023-02-04T12:34:15;16.90;99.90
16515;DHT22;8370;52.556;7.970;2023-02-04T12:36:42;17.30;99.90
16515;DHT22;8370;52.556;7.970;2023-02-04T12:39:07;17.90;99.90
16515;DHT22;8370;52.556;7.970;2023-02-04T12:41:34;18.50;99.90
16515;DHT22;8370;52.556;7.970;2023-02-04T12:44:00;18.60;99.90
16515;DHT22;8370;52.556;7.970;2023-02-04T12:46:27;18.00;99.90
16515;DHT22;8370;52.556;7.970;2023-02-04T12:48:52;17.20;99.90
16515;DHT22;8370;52.556;7.970;2023-02-04T12:51:18;16.10;99.90
16515;DHT22;8370;52.556;7.970;2023-02-04T12:53:45;15.00;99.90
16515;DHT22;8370;52.556;7.970;2023-02-04T12:56:12;13.90;99.90
16515;DHT22;8370;52.556;7.970;2023-02-04T12:58:38;12.90;99.90
16515;DHT22;8370;52.556;7.970;2023-02-04T13:01:03;12.20;99.90
16515;DHT22;8370;52.556;7.970;2023-02-04T13:03:29;11.70;99.90
16515;DHT22;8370;52.556;7.970;2023-02-04T13:05:54;11.30;99.90
16515;DHT22;8370;52.556;7.970;2023-02-04T13:08:20;10.90;99.90
16515;DHT22;8370;52.556;7.970;2023-02-04T13:10:46;10.50;99.90
16515;DHT22;8370;52.556;7.970;2023-02-04T13:13:19;10.20;99.90
16515;DHT22;8370;52.556;7.970;2023-02-04T13:15:46;10.10;99.90
16515;DHT22;8370;52.556;7.970;2023-02-04T13:18:12;10.00;99.90
16515;DHT22;8370;52.556;7.970;2023-02-04T13:20:37;10.20;99.90
16515;DHT22;8370;52.556;7.970;2023-02-04T13:23:03;10.40;99.90
16515;DHT22;8370;52.556;7.970;2023-02-04T13:25:28;10.50;99.90
16515;DHT22;8370;52.556;7.970;2023-02-04T13:27:54;10.50;99.90
16515;DHT22;8370;52.556;7.970;2023-02-04T13:30:20;10.40;99.90
16515;DHT22;8370;52.556;7.970;2023-02-04T13:32:46;10.10;99.90
16515;DHT22;8370;52.556;7.970;2023-02-04T13:35:11;9.80;99.90
16515;DHT22;8370;52.556;7.970;2023-02-04T13:37:37;9.50;99.90
16515;DHT22;8370;52.556;7.970;2023-02-04T13:40:04;9.40;99.90
16515;DHT22;8370;52.556;7.970;2023-02-04T13:42:29;9.30;99.90
16515;DHT22;8370;52.556;7.970;2023-02-04T13:44:55;9.50;99.90
16515;DHT22;8370;52.556;7.970;2023-02-04T13:47:21;9.60;99.90
16515;DHT22;8370;52.556;7.970;2023-02-04T13:49:47;9.90;99.90
16515;DHT22;8370;52.556;7.970;2023-02-04T13:52:12;10.50;99.90
16515;DHT22;8370;52.556;7.970;2023-02-04T13:54:38;11.20;99.90
16515;DHT22;8370;52.556;7.970;2023-02-04T13:57:04;11.50;99.90
16515;DHT22;8370;52.556;7.970;2023-02-04T13:59:29;11.50;99.90
16515;DHT22;8370;52.556;7.970;2023-02-04T14:01:55;11.20;99.90
16515;DHT22;8370;52.556;7.970;2023-02-04T14:04:20;10.90;99.90
16515;DHT22;8370;52.556;7.970;2023-02-04T14:06:46;10.70;99.90
16515;DHT22;8370;52.556;7.970;2023-02-04T14:09:11;10.40;99.90
16515;DHT22;8370;52.556;7.970;2023-02-04T14:11:38;10.00;99.90
16515;DHT22;8370;52.556;7.970;2023-02-04T14:14:04;9.60;99.90
16515;DHT22;8370;52.556;7.970;2023-02-04T14:16:30;9.20;99.90
16515;DHT22;8370;52.556;7.970;2023-02-04T14:18:55;9.00;99.90
16515;DHT22;8370;52.556;7.970;2023-02-04T14:21:21;8.70;99.90
16515;DHT22;8370;52.556;7.970;2023-02-04T14:23:47;8.50;99.90
16515;DHT22;8370;52.556;7.970;2023-02-04T14:26:12;8.40;99.90
16515;DHT22;8370;52.556;7.970;2023-02-04T14:28:38;8.20;99.90
16515;DHT22;8370;52.556;7.970;2023-02-04T14:31:03;8.00;99.90
16515;DHT22;8370;52.556;7.970;2023-02-04T14:33:29;7.90;99.90
16515;DHT22;8370;52.556;7.970;2023-02-04T14:35:54;7.70;99.90
16515;DHT22;8370;52.556;7.970;2023-02-04T14:38:20;7.60;99.90
16515;DHT22;8370;52.556;7.970;2023-02-04T14:40:46;7.60;99.90
16515;DHT22;8370;52.556;7.970;2023-02-04T14:43:11;7.70;99.90
16515;DHT22;8370;52.556;7.970;2023-02-04T14:45:38;7.40;99.90
16515;DHT22;8370;52.556;7.970;2023-02-04T14:48:04;7.30;99.90
16515;DHT22;8370;52.556;7.970;2023-02-04T14:50:30;7.20;99.90
16515;DHT22;8370;52.556;7.970;2023-02-04T14:52:56;7.30;99.90
16515;DHT22;8370;52.556;7.970;2023-02-04T14:55:25;7.20;99.90
16515;DHT22;8370;52.556;7.970;2023-02-04T14:57:51;7.20;99.90
16515;DHT22;8370;52.556;7.970;2023-02-04T15:00:18;7.10;99.90
16515;DHT22;8370;52.556;7.970;2023-02-04T15:02:43;7.10;99.90
16515;DHT22;8370;52.556;7.970;2023-02-04T15:05:09;7.10;99.90
16515;DHT22;8370;52.556;7.970;2023-02-04T15:07:35;7.00;99.90
16515;DHT22;8370;52.556;7.970;2023-02-04T15:10:02;6.90;99.90
16515;DHT22;8370;52.556;7.970;2023-02-04T15:12:28;6.90;99.90
16515;DHT22;8370;52.556;7.970;2023-02-04T15:14:53;6.90;99.90
16515;DHT22;8370;52.556;7.970;2023-02-04T15:17:19;6.80;99.90
16515;DHT22;8370;52.556;7.970;2023-02-04T15:19:45;6.80;99.90
16515;DHT22;8370;52.556;7.970;2023-02-04T15:22:10;6.80;99.90
16515;DHT22;8370;52.556;7.970;2023-02-04T15:24:37;6.80;99.90
16515;DHT22;8370;52.556;7.970;2023-02-04T15:27:02;6.70;99.90
16515;DHT22;8370;52.556;7.970;2023-02-04T15:29:29;6.70;99.90
16515;DHT22;8370;52.556;7.970;2023-02-04T15:31:55;6.60;99.90
16515;DHT22;8370;52.556;7.970;2023-02-04T15:34:20;6.50;99.90
16515;DHT22;8370;52.556;7.970;2023-02-04T15:36:46;6.50;99.90
16515;DHT22;8370;52.556;7.970;2023-02-04T15:39:11;6.50;99.90
16515;DHT22;8370;52.556;7.970;2023-02-04T15:41:37;6.50;99.90
16515;DHT22;8370;52.556;7.970;2023-02-04T15:44:02;6.40;99.90
16515;DHT22;8370;52.556;7.970;2023-02-04T15:49:06;6.30;99.90
16515;DHT22;8370;52.556;7.970;2023-02-04T15:51:31;6.30;99.90
16515;DHT22;8370;52.556;7.970;2023-02-04T15:53:57;6.30;99.90
16515;DHT22;8370;52.556;7.970;2023-02-04T15:56:22;6.30;99.90
16515;DHT22;8370;52.556;7.970;2023-02-04T15:58:48;6.20;99.90
16515;DHT22;8370;52.556;7.970;2023-02-04T16:01:13;6.10;99.90
16515;DHT22;8370;52.556;7.970;2023-02-04T16:03:40;6.00;99.90
16515;DHT22;8370;52.556;7.970;2023-02-04T16:06:09;5.90;99.90
16515;DHT22;8370;52.556;7.970;2023-02-04T16:08:34;5.90;99.90
16515;DHT22;8370;52.556;7.970;2023-02-04T16:11:01;5.80;99.90
16515;DHT22;8370;52.556;7.970;2023-02-04T16:13:26;5.80;99.90